PWSweather.com
Personal Weather Stations
Station Observations

SkegnessGB

Lat: 53.147585, Lon: 0.345774

Elevation: 18

Station Type: Fine Offset WH3080

http://www.skegnessweather.info/

High Low Average
Temperature 54.1°F12.3°C 41.0°F5.0°C 47.5°F8.6°C
Dew Point 44.6°F7.0°C 39.2°F4.0°C 42.0°F5.6°C
Winds 13.1 mph 21.1 kmh 0.1 mph 0.2 kmh 8.0 mph NE12.9 kmh NE
Wind Gusts 16.0 mph25.7 kmh 1.7 mph2.7 kmh 10.0 mph16.1 kmh
Humidity 98% 67% 82%
Pressure 30.40 in1029.5 mb 30.34 in1027.4 mb -
Precipitation 0.00 in0.0 mm - -
Hour Temp Dew Point Humidity Winds Wind Gusts Pressure Precip Precip Rate Daily Precip Total
12:00 AM 44.8°F7.1°C 40.5°F4.7°C 85% 9.0 mph NE14.5 kmh NE 11.8 mph19.0 kmh 30.40 in1029.5 mb 0.00 in0.0 mm 0.00 in0.0 mm 0.00 in0.0 mm
12:10 AM 44.8°F7.1°C 40.5°F4.7°C 85% 6.6 mph NNE10.6 kmh NNE 10.1 mph16.3 kmh 30.39 in1029.1 mb 0.00 in0.0 mm 0.00 in0.0 mm 0.00 in0.0 mm
12:20 AM 44.6°F7.0°C 40.4°F4.7°C 85% 9.8 mph NE15.8 kmh NE 11.8 mph19.0 kmh 30.39 in1029.1 mb 0.00 in0.0 mm 0.00 in0.0 mm 0.00 in0.0 mm
12:30 AM 44.6°F7.0°C 40.4°F4.7°C 85% 9.9 mph NNE15.9 kmh NNE 10.8 mph17.4 kmh 30.39 in1029.1 mb 0.00 in0.0 mm 0.00 in0.0 mm 0.00 in0.0 mm
12:40 AM 44.6°F7.0°C 40.7°F4.8°C 86% 9.0 mph NNE14.5 kmh NNE 9.1 mph14.6 kmh 30.39 in1029.1 mb 0.00 in0.0 mm 0.00 in0.0 mm 0.00 in0.0 mm
12:50 AM 44.6°F7.0°C 40.7°F4.8°C 86% 8.9 mph NNE14.3 kmh NNE 11.8 mph19.0 kmh 30.39 in1029.1 mb 0.00 in0.0 mm 0.00 in0.0 mm 0.00 in0.0 mm
01:00 AM 44.4°F6.9°C 40.5°F4.7°C 86% 9.6 mph N15.4 kmh N 12.5 mph20.1 kmh 30.39 in1029.1 mb 0.00 in0.0 mm 0.00 in0.0 mm 0.00 in0.0 mm
01:10 AM 44.4°F6.9°C 40.5°F4.7°C 86% 9.4 mph NNE15.1 kmh NNE 11.8 mph19.0 kmh 30.38 in1028.8 mb 0.00 in0.0 mm 0.00 in0.0 mm 0.00 in0.0 mm
01:20 AM 44.2°F6.8°C 40.6°F4.8°C 87% 8.2 mph NNE13.2 kmh NNE 8.4 mph13.5 kmh 30.39 in1029.1 mb 0.00 in0.0 mm 0.00 in0.0 mm 0.00 in0.0 mm
01:30 AM 44.1°F6.7°C 40.4°F4.7°C 87% 8.1 mph NNE13.0 kmh NNE 12.5 mph20.1 kmh 30.38 in1028.8 mb 0.00 in0.0 mm 0.00 in0.0 mm 0.00 in0.0 mm
01:40 AM 44.1°F6.7°C 40.4°F4.7°C 87% 7.8 mph NNE12.6 kmh NNE 9.1 mph14.6 kmh 30.38 in1028.8 mb 0.00 in0.0 mm 0.00 in0.0 mm 0.00 in0.0 mm
01:50 AM 43.9°F6.6°C 40.3°F4.6°C 87% 7.4 mph NE11.9 kmh NE 8.4 mph13.5 kmh 30.37 in1028.4 mb 0.00 in0.0 mm 0.00 in0.0 mm 0.00 in0.0 mm
02:00 AM 43.9°F6.6°C 40.6°F4.8°C 88% 8.8 mph NE14.2 kmh NE 9.1 mph14.6 kmh 30.38 in1028.8 mb 0.00 in0.0 mm 0.00 in0.0 mm 0.00 in0.0 mm
02:10 AM 43.9°F6.6°C 40.3°F4.6°C 87% 9.2 mph NNE14.8 kmh NNE 9.1 mph14.6 kmh 30.38 in1028.8 mb 0.00 in0.0 mm 0.00 in0.0 mm 0.00 in0.0 mm
02:20 AM 43.9°F6.6°C 40.3°F4.6°C 87% 8.7 mph NNE14.0 kmh NNE 10.8 mph17.4 kmh 30.37 in1028.4 mb 0.00 in0.0 mm 0.00 in0.0 mm 0.00 in0.0 mm
02:30 AM 43.9°F6.6°C 40.3°F4.6°C 87% 9.4 mph NE15.1 kmh NE 10.1 mph16.3 kmh 30.37 in1028.4 mb 0.00 in0.0 mm 0.00 in0.0 mm 0.00 in0.0 mm
02:40 AM 43.7°F6.5°C 40.4°F4.7°C 88% 8.4 mph N13.5 kmh N 9.1 mph14.6 kmh 30.37 in1028.4 mb 0.00 in0.0 mm 0.00 in0.0 mm 0.00 in0.0 mm
02:50 AM 43.7°F6.5°C 40.7°F4.8°C 89% 7.0 mph NE11.3 kmh NE 7.6 mph12.2 kmh 30.37 in1028.4 mb 0.00 in0.0 mm 0.00 in0.0 mm 0.00 in0.0 mm
03:00 AM 43.3°F6.3°C 40.6°F4.8°C 90% 5.9 mph NNE9.5 kmh NNE 6.6 mph10.6 kmh 30.37 in1028.4 mb 0.00 in0.0 mm 0.00 in0.0 mm 0.00 in0.0 mm
03:10 AM 43.2°F6.2°C 40.7°F4.8°C 91% 5.4 mph NE8.7 kmh NE 8.4 mph13.5 kmh 30.36 in1028.1 mb 0.00 in0.0 mm 0.00 in0.0 mm 0.00 in0.0 mm
03:20 AM 43.2°F6.2°C 40.7°F4.8°C 91% 6.5 mph NE10.5 kmh NE 10.1 mph16.3 kmh 30.37 in1028.4 mb 0.00 in0.0 mm 0.00 in0.0 mm 0.00 in0.0 mm
03:30 AM 43.0°F6.1°C 40.2°F4.6°C 90% 6.2 mph NE10.0 kmh NE 7.6 mph12.2 kmh 30.37 in1028.4 mb 0.00 in0.0 mm 0.00 in0.0 mm 0.00 in0.0 mm
03:40 AM 42.8°F6.0°C 40.4°F4.7°C 91% 6.7 mph NNE10.8 kmh NNE 8.4 mph13.5 kmh 30.37 in1028.4 mb 0.00 in0.0 mm 0.00 in0.0 mm 0.00 in0.0 mm
03:50 AM 42.8°F6.0°C 40.6°F4.8°C 92% 5.9 mph NNE9.5 kmh NNE 6.6 mph10.6 kmh 30.37 in1028.4 mb 0.00 in0.0 mm 0.00 in0.0 mm 0.00 in0.0 mm
04:00 AM 42.8°F6.0°C 40.6°F4.8°C 92% 6.5 mph NE10.5 kmh NE 7.6 mph12.2 kmh 30.37 in1028.4 mb 0.00 in0.0 mm 0.00 in0.0 mm 0.00 in0.0 mm
04:10 AM 43.2°F6.2°C 41.0°F5.0°C 92% 6.0 mph NNE9.7 kmh NNE 8.4 mph13.5 kmh 30.36 in1028.1 mb 0.00 in0.0 mm 0.00 in0.0 mm 0.00 in0.0 mm
04:20 AM 43.3°F6.3°C 41.2°F5.1°C 92% 6.8 mph NE10.9 kmh NE 10.8 mph17.4 kmh 30.37 in1028.4 mb 0.00 in0.0 mm 0.00 in0.0 mm 0.00 in0.0 mm
04:30 AM 43.5°F6.4°C 41.1°F5.1°C 91% 7.9 mph N12.7 kmh N 10.8 mph17.4 kmh 30.37 in1028.4 mb 0.00 in0.0 mm 0.00 in0.0 mm 0.00 in0.0 mm
04:40 AM 43.7°F6.5°C 41.0°F5.0°C 90% 8.6 mph NNE13.8 kmh NNE 10.1 mph16.3 kmh 30.37 in1028.4 mb 0.00 in0.0 mm 0.00 in0.0 mm 0.00 in0.0 mm
04:50 AM 43.9°F6.6°C 40.8°F4.9°C 89% 8.5 mph NNE13.7 kmh NNE 10.8 mph17.4 kmh 30.37 in1028.4 mb 0.00 in0.0 mm 0.00 in0.0 mm 0.00 in0.0 mm
05:00 AM 44.2°F6.8°C 40.9°F4.9°C 88% 9.6 mph NE15.4 kmh NE 10.8 mph17.4 kmh 30.36 in1028.1 mb 0.00 in0.0 mm 0.00 in0.0 mm 0.00 in0.0 mm
05:10 AM 44.6°F7.0°C 41.3°F5.2°C 88% 9.7 mph NE15.6 kmh NE 13.3 mph21.4 kmh 30.36 in1028.1 mb 0.00 in0.0 mm 0.00 in0.0 mm 0.00 in0.0 mm
05:20 AM 44.8°F7.1°C 41.1°F5.1°C 87% 10.3 mph NE16.6 kmh NE 10.8 mph17.4 kmh 30.37 in1028.4 mb 0.00 in0.0 mm 0.00 in0.0 mm 0.00 in0.0 mm
05:30 AM 45.1°F7.3°C 41.5°F5.3°C 87% 9.6 mph NNE15.4 kmh NNE 12.5 mph20.1 kmh 30.36 in1028.1 mb 0.00 in0.0 mm 0.00 in0.0 mm 0.00 in0.0 mm
05:40 AM 45.3°F7.4°C 41.4°F5.2°C 86% 10.3 mph ENE16.6 kmh ENE 10.1 mph16.3 kmh 30.37 in1028.4 mb 0.00 in0.0 mm 0.00 in0.0 mm 0.00 in0.0 mm
05:50 AM 45.5°F7.5°C 41.6°F5.3°C 86% 9.6 mph NNE15.4 kmh NNE 12.5 mph20.1 kmh 30.37 in1028.4 mb 0.00 in0.0 mm 0.00 in0.0 mm 0.00 in0.0 mm
06:00 AM 45.7°F7.6°C 41.4°F5.2°C 85% 10.3 mph NE16.6 kmh NE 10.8 mph17.4 kmh 30.37 in1028.4 mb 0.00 in0.0 mm 0.00 in0.0 mm 0.00 in0.0 mm
06:10 AM 46.0°F7.8°C 41.8°F5.4°C 85% 12.2 mph NE19.6 kmh NE 11.8 mph19.0 kmh 30.37 in1028.4 mb 0.00 in0.0 mm 0.00 in0.0 mm 0.00 in0.0 mm
06:20 AM 46.2°F7.9°C 41.7°F5.4°C 84% 11.0 mph NNE17.7 kmh NNE 11.8 mph19.0 kmh 30.37 in1028.4 mb 0.00 in0.0 mm 0.00 in0.0 mm 0.00 in0.0 mm
06:30 AM 46.6°F8.1°C 41.7°F5.4°C 83% 11.8 mph N19.0 kmh N 14.3 mph23.0 kmh 30.37 in1028.4 mb 0.00 in0.0 mm 0.00 in0.0 mm 0.00 in0.0 mm
06:40 AM 46.9°F8.3°C 42.0°F5.6°C 83% 10.7 mph NNE17.2 kmh NNE 13.3 mph21.4 kmh 30.37 in1028.4 mb 0.00 in0.0 mm 0.00 in0.0 mm 0.00 in0.0 mm
06:50 AM 46.9°F8.3°C 42.0°F5.6°C 83% 11.8 mph N19.0 kmh N 13.3 mph21.4 kmh 30.38 in1028.8 mb 0.00 in0.0 mm 0.00 in0.0 mm 0.00 in0.0 mm
07:00 AM 47.1°F8.4°C 41.9°F5.5°C 82% 12.5 mph NNE20.1 kmh NNE 14.3 mph23.0 kmh 30.37 in1028.4 mb 0.00 in0.0 mm 0.00 in0.0 mm 0.00 in0.0 mm
07:10 AM 47.1°F8.4°C 41.9°F5.5°C 82% 12.6 mph NNE20.3 kmh NNE 13.3 mph21.4 kmh 30.38 in1028.8 mb 0.00 in0.0 mm 0.00 in0.0 mm 0.00 in0.0 mm
07:20 AM 47.5°F8.6°C 42.3°F5.7°C 82% 11.6 mph NNE18.7 kmh NNE 16.0 mph25.7 kmh 30.38 in1028.8 mb 0.00 in0.0 mm 0.00 in0.0 mm 0.00 in0.0 mm
07:30 AM 47.7°F8.7°C 42.4°F5.8°C 82% 10.7 mph NNE17.2 kmh NNE 11.8 mph19.0 kmh 30.38 in1028.8 mb 0.00 in0.0 mm 0.00 in0.0 mm 0.00 in0.0 mm
07:40 AM 47.8°F8.8°C 42.6°F5.9°C 82% 11.6 mph NNE18.7 kmh NNE 11.8 mph19.0 kmh 30.38 in1028.8 mb 0.00 in0.0 mm 0.00 in0.0 mm 0.00 in0.0 mm
07:50 AM 48.2°F9.0°C 43.0°F6.1°C 82% 10.1 mph N16.3 kmh N 11.8 mph19.0 kmh 30.38 in1028.8 mb 0.00 in0.0 mm 0.00 in0.0 mm 0.00 in0.0 mm
08:00 AM 48.4°F9.1°C 43.1°F6.2°C 82% 9.2 mph NE14.8 kmh NE 10.1 mph16.3 kmh 30.39 in1029.1 mb 0.00 in0.0 mm 0.00 in0.0 mm 0.00 in0.0 mm
08:10 AM 48.4°F9.1°C 42.5°F5.8°C 80% 10.9 mph NE17.5 kmh NE 13.3 mph21.4 kmh 30.38 in1028.8 mb 0.00 in0.0 mm 0.00 in0.0 mm 0.00 in0.0 mm
08:20 AM 48.6°F9.2°C 43.0°F6.1°C 81% 10.6 mph NE17.1 kmh NE 15.0 mph24.1 kmh 30.38 in1028.8 mb 0.00 in0.0 mm 0.00 in0.0 mm 0.00 in0.0 mm
08:30 AM 49.1°F9.5°C 43.2°F6.2°C 80% 11.4 mph NE18.3 kmh NE 12.5 mph20.1 kmh 30.39 in1029.1 mb 0.00 in0.0 mm 0.00 in0.0 mm 0.00 in0.0 mm
08:40 AM 48.9°F9.4°C 42.7°F5.9°C 79% 10.8 mph NE17.4 kmh NE 15.0 mph24.1 kmh 30.39 in1029.1 mb 0.00 in0.0 mm 0.00 in0.0 mm 0.00 in0.0 mm
08:50 AM 49.5°F9.7°C 43.2°F6.2°C 79% 9.3 mph NE15.0 kmh NE 15.0 mph24.1 kmh 30.39 in1029.1 mb 0.00 in0.0 mm 0.00 in0.0 mm 0.00 in0.0 mm
09:00 AM 49.5°F9.7°C 43.2°F6.2°C 79% 12.1 mph NE19.5 kmh NE 15.0 mph24.1 kmh 30.40 in1029.5 mb 0.00 in0.0 mm 0.00 in0.0 mm 0.00 in0.0 mm
09:10 AM 50.5°F10.3°C 43.9°F6.6°C 78% 10.4 mph NNE16.7 kmh NNE 11.8 mph19.0 kmh 30.40 in1029.5 mb 0.00 in0.0 mm 0.00 in0.0 mm 0.00 in0.0 mm
09:20 AM 50.7°F10.4°C 43.4°F6.3°C 76% 11.2 mph NE18.0 kmh NE 14.3 mph23.0 kmh 30.40 in1029.5 mb 0.00 in0.0 mm 0.00 in0.0 mm 0.00 in0.0 mm
09:30 AM 51.3°F10.7°C 43.6°F6.4°C 75% 10.9 mph NNE17.5 kmh NNE 14.3 mph23.0 kmh 30.39 in1029.1 mb 0.00 in0.0 mm 0.00 in0.0 mm 0.00 in0.0 mm
09:40 AM 50.9°F10.5°C 42.9°F6.1°C 74% 11.0 mph NNW17.7 kmh NNW 11.8 mph19.0 kmh 30.40 in1029.5 mb 0.00 in0.0 mm 0.00 in0.0 mm 0.00 in0.0 mm
09:50 AM 51.3°F10.7°C 43.3°F6.3°C 74% 10.8 mph NE17.4 kmh NE 14.3 mph23.0 kmh 30.40 in1029.5 mb 0.00 in0.0 mm 0.00 in0.0 mm 0.00 in0.0 mm
10:00 AM 50.9°F10.5°C 42.9°F6.1°C 74% 11.7 mph NE18.8 kmh NE 13.3 mph21.4 kmh 30.40 in1029.5 mb 0.00 in0.0 mm 0.00 in0.0 mm 0.00 in0.0 mm
10:10 AM 51.1°F10.6°C 43.1°F6.2°C 74% 13.1 mph NE21.1 kmh NE 13.3 mph21.4 kmh 30.40 in1029.5 mb 0.00 in0.0 mm 0.00 in0.0 mm 0.00 in0.0 mm
10:20 AM 50.5°F10.3°C 43.3°F6.3°C 76% 11.7 mph NE18.8 kmh NE 12.5 mph20.1 kmh 30.40 in1029.5 mb 0.00 in0.0 mm 0.00 in0.0 mm 0.00 in0.0 mm
10:30 AM 51.6°F10.9°C 43.6°F6.4°C 74% 11.1 mph NE17.9 kmh NE 11.8 mph19.0 kmh 30.40 in1029.5 mb 0.00 in0.0 mm 0.00 in0.0 mm 0.00 in0.0 mm
10:40 AM 52.0°F11.1°C 43.2°F6.2°C 72% 10.1 mph NE16.3 kmh NE 10.8 mph17.4 kmh 30.40 in1029.5 mb 0.00 in0.0 mm 0.00 in0.0 mm 0.00 in0.0 mm
10:50 AM 52.7°F11.5°C 42.8°F6.0°C 69% 12.2 mph NNE19.6 kmh NNE 16.0 mph25.7 kmh 30.40 in1029.5 mb 0.00 in0.0 mm 0.00 in0.0 mm 0.00 in0.0 mm
11:00 AM 51.4°F10.8°C 42.7°F5.9°C 72% 10.9 mph NE17.5 kmh NE 14.3 mph23.0 kmh 30.40 in1029.5 mb 0.00 in0.0 mm 0.00 in0.0 mm 0.00 in0.0 mm
11:10 AM 51.8°F11.0°C 43.1°F6.2°C 72% 13.1 mph NNE21.1 kmh NNE 15.0 mph24.1 kmh 30.40 in1029.5 mb 0.00 in0.0 mm 0.00 in0.0 mm 0.00 in0.0 mm
11:20 AM 51.8°F11.0°C 42.7°F5.9°C 71% 10.0 mph NE16.1 kmh NE 12.5 mph20.1 kmh 30.40 in1029.5 mb 0.00 in0.0 mm 0.00 in0.0 mm 0.00 in0.0 mm
11:30 AM 52.2°F11.2°C 43.0°F6.1°C 71% 10.7 mph NNE17.2 kmh NNE 10.8 mph17.4 kmh 30.39 in1029.1 mb 0.00 in0.0 mm 0.00 in0.0 mm 0.00 in0.0 mm
11:40 AM 52.3°F11.3°C 42.5°F5.8°C 69% 10.7 mph NE17.2 kmh NE 10.8 mph17.4 kmh 30.39 in1029.1 mb 0.00 in0.0 mm 0.00 in0.0 mm 0.00 in0.0 mm
11:50 AM 52.2°F11.2°C 42.3°F5.7°C 69% 11.3 mph NE18.2 kmh NE 12.5 mph20.1 kmh 30.39 in1029.1 mb 0.00 in0.0 mm 0.00 in0.0 mm 0.00 in0.0 mm
12:00 PM 52.0°F11.1°C 42.5°F5.8°C 70% 10.9 mph N17.5 kmh N 12.5 mph20.1 kmh 30.39 in1029.1 mb 0.00 in0.0 mm 0.00 in0.0 mm 0.00 in0.0 mm
12:10 PM 52.5°F11.4°C 43.0°F6.1°C 70% 12.9 mph NE20.8 kmh NE 12.5 mph20.1 kmh 30.38 in1028.8 mb 0.00 in0.0 mm 0.00 in0.0 mm 0.00 in0.0 mm
12:20 PM 52.3°F11.3°C 42.5°F5.8°C 69% 9.9 mph NE15.9 kmh NE 11.8 mph19.0 kmh 30.39 in1029.1 mb 0.00 in0.0 mm 0.00 in0.0 mm 0.00 in0.0 mm
12:30 PM 52.9°F11.6°C 43.0°F6.1°C 69% 11.2 mph NE18.0 kmh NE 12.5 mph20.1 kmh 30.39 in1029.1 mb 0.00 in0.0 mm 0.00 in0.0 mm 0.00 in0.0 mm
12:40 PM 52.2°F11.2°C 42.3°F5.7°C 69% 10.5 mph NE16.9 kmh NE 11.8 mph19.0 kmh 30.39 in1029.1 mb 0.00 in0.0 mm 0.00 in0.0 mm 0.00 in0.0 mm
12:50 PM 53.1°F11.7°C 42.8°F6.0°C 68% 11.7 mph NE18.8 kmh NE 14.3 mph23.0 kmh 30.39 in1029.1 mb 0.00 in0.0 mm 0.00 in0.0 mm 0.00 in0.0 mm
01:00 PM 53.4°F11.9°C 43.1°F6.2°C 68% 10.5 mph NNE16.9 kmh NNE 10.8 mph17.4 kmh 30.38 in1028.8 mb 0.00 in0.0 mm 0.00 in0.0 mm 0.00 in0.0 mm
01:10 PM 53.8°F12.1°C 43.1°F6.2°C 67% 10.8 mph NNE17.4 kmh NNE 11.8 mph19.0 kmh 30.38 in1028.8 mb 0.00 in0.0 mm 0.00 in0.0 mm 0.00 in0.0 mm
01:20 PM 54.1°F12.3°C 43.4°F6.3°C 67% 9.3 mph NE15.0 kmh NE 11.8 mph19.0 kmh 30.38 in1028.8 mb 0.00 in0.0 mm 0.00 in0.0 mm 0.00 in0.0 mm
01:30 PM 53.1°F11.7°C 42.8°F6.0°C 68% 11.7 mph NE18.8 kmh NE 12.5 mph20.1 kmh 30.38 in1028.8 mb 0.00 in0.0 mm 0.00 in0.0 mm 0.00 in0.0 mm
01:40 PM 53.1°F11.7°C 42.8°F6.0°C 68% 10.9 mph ENE17.5 kmh ENE 12.5 mph20.1 kmh 30.38 in1028.8 mb 0.00 in0.0 mm 0.00 in0.0 mm 0.00 in0.0 mm
01:50 PM 52.5°F11.4°C 43.0°F6.1°C 70% 11.5 mph NE18.5 kmh NE 11.8 mph19.0 kmh 30.38 in1028.8 mb 0.00 in0.0 mm 0.00 in0.0 mm 0.00 in0.0 mm
02:00 PM 52.3°F11.3°C 43.6°F6.4°C 72% 10.8 mph NNE17.4 kmh NNE 12.5 mph20.1 kmh 30.38 in1028.8 mb 0.00 in0.0 mm 0.00 in0.0 mm 0.00 in0.0 mm
02:10 PM 53.4°F11.9°C 43.9°F6.6°C 70% 9.2 mph N14.8 kmh N 9.1 mph14.6 kmh 30.38 in1028.8 mb 0.00 in0.0 mm 0.00 in0.0 mm 0.00 in0.0 mm
02:20 PM 53.1°F11.7°C 43.2°F6.2°C 69% 9.7 mph NE15.6 kmh NE 12.5 mph20.1 kmh 30.38 in1028.8 mb 0.00 in0.0 mm 0.00 in0.0 mm 0.00 in0.0 mm
02:30 PM 52.5°F11.4°C 43.8°F6.6°C 72% 10.5 mph NE16.9 kmh NE 10.8 mph17.4 kmh 30.38 in1028.8 mb 0.00 in0.0 mm 0.00 in0.0 mm 0.00 in0.0 mm
02:40 PM 52.9°F11.6°C 44.1°F6.7°C 72% 10.5 mph NNE16.9 kmh NNE 14.3 mph23.0 kmh 30.38 in1028.8 mb 0.00 in0.0 mm 0.00 in0.0 mm 0.00 in0.0 mm
02:50 PM 52.2°F11.2°C 43.4°F6.3°C 72% 9.7 mph NE15.6 kmh NE 10.8 mph17.4 kmh 30.38 in1028.8 mb 0.00 in0.0 mm 0.00 in0.0 mm 0.00 in0.0 mm
03:00 PM 53.4°F11.9°C 44.6°F7.0°C 72% 10.6 mph N17.1 kmh N 11.8 mph19.0 kmh 30.38 in1028.8 mb 0.00 in0.0 mm 0.00 in0.0 mm 0.00 in0.0 mm
03:10 PM 52.9°F11.6°C 43.0°F6.1°C 69% 9.6 mph NE15.4 kmh NE 12.5 mph20.1 kmh 30.38 in1028.8 mb 0.00 in0.0 mm 0.00 in0.0 mm 0.00 in0.0 mm
03:20 PM 51.6°F10.9°C 44.0°F6.7°C 75% 11.4 mph NNE18.3 kmh NNE 14.3 mph23.0 kmh 30.38 in1028.8 mb 0.00 in0.0 mm 0.00 in0.0 mm 0.00 in0.0 mm
03:30 PM 50.9°F10.5°C 43.6°F6.4°C 76% 10.3 mph NNE16.6 kmh NNE 10.8 mph17.4 kmh 30.38 in1028.8 mb 0.00 in0.0 mm 0.00 in0.0 mm 0.00 in0.0 mm
03:40 PM 50.5°F10.3°C 43.9°F6.6°C 78% 10.9 mph NE17.5 kmh NE 11.8 mph19.0 kmh 30.38 in1028.8 mb 0.00 in0.0 mm 0.00 in0.0 mm 0.00 in0.0 mm
03:50 PM 50.2°F10.1°C 43.9°F6.6°C 79% 9.6 mph ENE15.4 kmh ENE 12.5 mph20.1 kmh 30.39 in1029.1 mb 0.00 in0.0 mm 0.00 in0.0 mm 0.00 in0.0 mm
04:00 PM 50.2°F10.1°C 43.9°F6.6°C 79% 8.8 mph NNE14.2 kmh NNE 10.1 mph16.3 kmh 30.38 in1028.8 mb 0.00 in0.0 mm 0.00 in0.0 mm 0.00 in0.0 mm
04:10 PM 50.0°F10.0°C 43.7°F6.5°C 79% 8.7 mph NE14.0 kmh NE 10.8 mph17.4 kmh 30.39 in1029.1 mb 0.00 in0.0 mm 0.00 in0.0 mm 0.00 in0.0 mm
04:20 PM 49.5°F9.7°C 43.5°F6.4°C 80% 9.6 mph NNE15.4 kmh NNE 10.8 mph17.4 kmh 30.38 in1028.8 mb 0.00 in0.0 mm 0.00 in0.0 mm 0.00 in0.0 mm
04:30 PM 49.3°F9.6°C 43.7°F6.5°C 81% 9.6 mph NE15.4 kmh NE 12.5 mph20.1 kmh 30.38 in1028.8 mb 0.00 in0.0 mm 0.00 in0.0 mm 0.00 in0.0 mm
04:40 PM 49.5°F9.7°C 44.2°F6.8°C 82% 7.3 mph NE11.7 kmh NE 9.1 mph14.6 kmh 30.38 in1028.8 mb 0.00 in0.0 mm 0.00 in0.0 mm 0.00 in0.0 mm
04:50 PM 49.1°F9.5°C 44.2°F6.8°C 83% 8.4 mph NE13.5 kmh NE 9.1 mph14.6 kmh 30.38 in1028.8 mb 0.00 in0.0 mm 0.00 in0.0 mm 0.00 in0.0 mm
05:00 PM 49.1°F9.5°C 43.8°F6.6°C 82% 8.6 mph NNE13.8 kmh NNE 10.8 mph17.4 kmh 30.38 in1028.8 mb 0.00 in0.0 mm 0.00 in0.0 mm 0.00 in0.0 mm
05:10 PM 48.6°F9.2°C 43.3°F6.3°C 82% 9.5 mph NE15.3 kmh NE 11.8 mph19.0 kmh 30.38 in1028.8 mb 0.00 in0.0 mm 0.00 in0.0 mm 0.00 in0.0 mm
05:20 PM 48.9°F9.4°C 43.7°F6.5°C 82% 10.1 mph NNE16.3 kmh NNE 11.8 mph19.0 kmh 30.37 in1028.4 mb 0.00 in0.0 mm 0.00 in0.0 mm 0.00 in0.0 mm
05:30 PM 49.1°F9.5°C 43.8°F6.6°C 82% 9.7 mph NNE15.6 kmh NNE 10.8 mph17.4 kmh 30.38 in1028.8 mb 0.00 in0.0 mm 0.00 in0.0 mm 0.00 in0.0 mm
05:40 PM 49.3°F9.6°C 43.7°F6.5°C 81% 8.5 mph NNE13.7 kmh NNE 10.8 mph17.4 kmh 30.37 in1028.4 mb 0.00 in0.0 mm 0.00 in0.0 mm 0.00 in0.0 mm
05:50 PM 49.3°F9.6°C 43.7°F6.5°C 81% 9.1 mph N14.6 kmh N 9.1 mph14.6 kmh 30.37 in1028.4 mb 0.00 in0.0 mm 0.00 in0.0 mm 0.00 in0.0 mm
06:00 PM 48.9°F9.4°C 43.0°F6.1°C 80% 7.5 mph NNE12.1 kmh NNE 9.1 mph14.6 kmh 30.37 in1028.4 mb 0.00 in0.0 mm 0.00 in0.0 mm 0.00 in0.0 mm
06:10 PM 48.2°F9.0°C 43.0°F6.1°C 82% 6.1 mph NNE9.8 kmh NNE 7.6 mph12.2 kmh 30.37 in1028.4 mb 0.00 in0.0 mm 0.00 in0.0 mm 0.00 in0.0 mm
06:20 PM 47.7°F8.7°C 42.1°F5.6°C 81% 8.3 mph NNE13.4 kmh NNE 9.1 mph14.6 kmh 30.37 in1028.4 mb 0.00 in0.0 mm 0.00 in0.0 mm 0.00 in0.0 mm
06:30 PM 47.5°F8.6°C 41.9°F5.5°C 81% 8.9 mph NNE14.3 kmh NNE 10.8 mph17.4 kmh 30.37 in1028.4 mb 0.00 in0.0 mm 0.00 in0.0 mm 0.00 in0.0 mm
06:40 PM 47.1°F8.4°C 41.6°F5.3°C 81% 7.5 mph NNE12.1 kmh NNE 9.1 mph14.6 kmh 30.37 in1028.4 mb 0.00 in0.0 mm 0.00 in0.0 mm 0.00 in0.0 mm
06:50 PM 47.1°F8.4°C 41.6°F5.3°C 81% 6.5 mph NE10.5 kmh NE 9.1 mph14.6 kmh 30.37 in1028.4 mb 0.00 in0.0 mm 0.00 in0.0 mm 0.00 in0.0 mm
07:00 PM 47.1°F8.4°C 41.9°F5.5°C 82% 5.9 mph NE9.5 kmh NE 6.6 mph10.6 kmh 30.37 in1028.4 mb 0.00 in0.0 mm 0.00 in0.0 mm 0.00 in0.0 mm
07:10 PM 47.1°F8.4°C 41.9°F5.5°C 82% 6.4 mph NNE10.3 kmh NNE 6.6 mph10.6 kmh 30.37 in1028.4 mb 0.00 in0.0 mm 0.00 in0.0 mm 0.00 in0.0 mm
07:20 PM 46.9°F8.3°C 41.7°F5.4°C 82% 5.9 mph NE9.5 kmh NE 6.6 mph10.6 kmh 30.37 in1028.4 mb 0.00 in0.0 mm 0.00 in0.0 mm 0.00 in0.0 mm
07:30 PM 46.9°F8.3°C 42.0°F5.6°C 83% 6.9 mph NE11.1 kmh NE 10.1 mph16.3 kmh 30.36 in1028.1 mb 0.00 in0.0 mm 0.00 in0.0 mm 0.00 in0.0 mm
07:40 PM 46.8°F8.2°C 41.6°F5.3°C 82% 7.2 mph NE11.6 kmh NE 9.1 mph14.6 kmh 30.37 in1028.4 mb 0.00 in0.0 mm 0.00 in0.0 mm 0.00 in0.0 mm
07:50 PM 46.6°F8.1°C 41.7°F5.4°C 83% 5.8 mph NNE9.3 kmh NNE 7.6 mph12.2 kmh 30.36 in1028.1 mb 0.00 in0.0 mm 0.00 in0.0 mm 0.00 in0.0 mm
08:00 PM 46.2°F7.9°C 41.3°F5.2°C 83% 5.1 mph NE8.2 kmh NE 5.9 mph9.5 kmh 30.37 in1028.4 mb 0.00 in0.0 mm 0.00 in0.0 mm 0.00 in0.0 mm
08:10 PM 46.0°F7.8°C 41.2°F5.1°C 83% 4.0 mph NE6.4 kmh NE 4.9 mph7.9 kmh 30.36 in1028.1 mb 0.00 in0.0 mm 0.00 in0.0 mm 0.00 in0.0 mm
08:20 PM 45.7°F7.6°C 40.8°F4.9°C 83% 3.8 mph N6.1 kmh N 4.9 mph7.9 kmh 30.36 in1028.1 mb 0.00 in0.0 mm 0.00 in0.0 mm 0.00 in0.0 mm
08:30 PM 45.5°F7.5°C 40.6°F4.8°C 83% 5.5 mph NE8.9 kmh NE 6.6 mph10.6 kmh 30.37 in1028.4 mb 0.00 in0.0 mm 0.00 in0.0 mm 0.00 in0.0 mm
08:40 PM 45.3°F7.4°C 40.5°F4.7°C 83% 4.0 mph NE6.4 kmh NE 5.9 mph9.5 kmh 30.37 in1028.4 mb 0.00 in0.0 mm 0.00 in0.0 mm 0.00 in0.0 mm
08:50 PM 45.1°F7.3°C 40.6°F4.8°C 84% 3.3 mph NNE5.3 kmh NNE 5.9 mph9.5 kmh 30.36 in1028.1 mb 0.00 in0.0 mm 0.00 in0.0 mm 0.00 in0.0 mm
09:00 PM 45.3°F7.4°C 40.8°F4.9°C 84% 4.2 mph NNE6.8 kmh NNE 4.9 mph7.9 kmh 30.36 in1028.1 mb 0.00 in0.0 mm 0.00 in0.0 mm 0.00 in0.0 mm
09:10 PM 45.3°F7.4°C 41.1°F5.1°C 85% 3.8 mph NNE6.1 kmh NNE 5.9 mph9.5 kmh 30.36 in1028.1 mb 0.00 in0.0 mm 0.00 in0.0 mm 0.00 in0.0 mm
09:20 PM 45.3°F7.4°C 41.1°F5.1°C 85% 3.6 mph N5.8 kmh N 4.2 mph6.8 kmh 30.36 in1028.1 mb 0.00 in0.0 mm 0.00 in0.0 mm 0.00 in0.0 mm
09:30 PM 45.3°F7.4°C 41.1°F5.1°C 85% 4.2 mph NE6.8 kmh NE 4.9 mph7.9 kmh 30.36 in1028.1 mb 0.00 in0.0 mm 0.00 in0.0 mm 0.00 in0.0 mm
09:40 PM 45.1°F7.3°C 40.9°F4.9°C 85% 2.6 mph NNE4.2 kmh NNE 4.2 mph6.8 kmh 30.36 in1028.1 mb 0.00 in0.0 mm 0.00 in0.0 mm 0.00 in0.0 mm
09:50 PM 44.8°F7.1°C 40.5°F4.7°C 85% 2.1 mph NNE3.4 kmh NNE 2.5 mph4.0 kmh 30.35 in1027.8 mb 0.00 in0.0 mm 0.00 in0.0 mm 0.00 in0.0 mm
10:00 PM 44.1°F6.7°C 39.8°F4.3°C 85% 1.0 mph NE1.6 kmh NE 2.5 mph4.0 kmh 30.35 in1027.8 mb 0.00 in0.0 mm 0.00 in0.0 mm 0.00 in0.0 mm
10:10 PM 43.3°F6.3°C 39.4°F4.1°C 86% 0.1 mph NE0.2 kmh NE 1.7 mph2.7 kmh 30.35 in1027.8 mb 0.00 in0.0 mm 0.00 in0.0 mm 0.00 in0.0 mm
10:20 PM 42.8°F6.0°C 39.2°F4.0°C 87% 0.3 mph E0.5 kmh E 1.7 mph2.7 kmh 30.35 in1027.8 mb 0.00 in0.0 mm 0.00 in0.0 mm 0.00 in0.0 mm
10:30 PM 42.6°F5.9°C 40.7°F4.8°C 93% 0.6 mph N1.0 kmh N 2.5 mph4.0 kmh 30.35 in1027.8 mb 0.00 in0.0 mm 0.00 in0.0 mm 0.00 in0.0 mm
10:40 PM 42.4°F5.8°C 40.8°F4.9°C 94% 0.7 mph NE1.1 kmh NE 2.5 mph4.0 kmh 30.35 in1027.8 mb 0.00 in0.0 mm 0.00 in0.0 mm 0.00 in0.0 mm
10:50 PM 42.3°F5.7°C 40.9°F4.9°C 95% 1.6 mph NE2.6 kmh NE 2.5 mph4.0 kmh 30.35 in1027.8 mb 0.00 in0.0 mm 0.00 in0.0 mm 0.00 in0.0 mm
11:00 PM 42.1°F5.6°C 41.0°F5.0°C 96% 1.3 mph NNE2.1 kmh NNE 2.5 mph4.0 kmh 30.35 in1027.8 mb 0.00 in0.0 mm 0.00 in0.0 mm 0.00 in0.0 mm
11:10 PM 41.7°F5.4°C 40.7°F4.8°C 96% 1.0 mph NE1.6 kmh NE 2.5 mph4.0 kmh 30.34 in1027.4 mb 0.00 in0.0 mm 0.00 in0.0 mm 0.00 in0.0 mm
11:20 PM 41.4°F5.2°C 40.6°F4.8°C 97% 0.9 mph NE1.4 kmh NE 1.7 mph2.7 kmh 30.34 in1027.4 mb 0.00 in0.0 mm 0.00 in0.0 mm 0.00 in0.0 mm
11:30 PM 41.2°F5.1°C 40.4°F4.7°C 97% 1.2 mph NE1.9 kmh NE 2.5 mph4.0 kmh 30.34 in1027.4 mb 0.00 in0.0 mm 0.00 in0.0 mm 0.00 in0.0 mm
11:40 PM 41.0°F5.0°C 40.5°F4.7°C 98% 1.1 mph NE1.8 kmh NE 1.7 mph2.7 kmh 30.34 in1027.4 mb 0.00 in0.0 mm 0.00 in0.0 mm 0.00 in0.0 mm
11:50 PM 41.0°F5.0°C 40.5°F4.7°C 98% 0.7 mph NNE1.1 kmh NNE 1.7 mph2.7 kmh 30.34 in1027.4 mb 0.00 in0.0 mm 0.00 in0.0 mm 0.00 in0.0 mm